sensor_id;sensor_type;location;lat;lon;timestamp;pressure;altitude;pressure_sealevel;temperature;humidity
16461;BME280;8341;42.048;24.650;2023-09-12T02:52:00;97450.03;;;15.99;55.39
16461;BME280;8341;42.048;24.650;2023-09-12T02:54:27;97444.00;;;16.06;55.35
16461;BME280;8341;42.048;24.650;2023-09-12T02:56:53;97432.25;;;16.11;54.12
16461;BME280;8341;42.048;24.650;2023-09-12T02:59:20;97443.72;;;16.20;54.17
16461;BME280;8341;42.048;24.650;2023-09-12T03:01:47;97442.47;;;16.27;52.72
16461;BME280;8341;42.048;24.650;2023-09-12T03:04:14;97440.16;;;16.37;54.75
16461;BME280;8341;42.048;24.650;2023-09-12T03:06:40;97440.66;;;16.41;53.93
16461;BME280;8341;42.048;24.650;2023-09-12T03:09:08;97441.41;;;16.41;53.60
16461;BME280;8341;42.048;24.650;2023-09-12T03:11:36;97436.75;;;16.14;55.28
16461;BME280;8341;42.048;24.650;2023-09-12T03:14:03;97439.00;;;16.10;53.41
16461;BME280;8341;42.048;24.650;2023-09-12T03:16:30;97450.00;;;16.10;52.71
16461;BME280;8341;42.048;24.650;2023-09-12T03:18:56;97441.00;;;16.04;54.49
16461;BME280;8341;42.048;24.650;2023-09-12T03:21:23;97449.28;;;16.04;54.50
16461;BME280;8341;42.048;24.650;2023-09-12T03:23:50;97455.00;;;15.95;53.84
16461;BME280;8341;42.048;24.650;2023-09-12T03:26:18;97451.06;;;15.57;55.66
16461;BME280;8341;42.048;24.650;2023-09-12T03:28:45;97455.03;;;15.39;56.65
16461;BME280;8341;42.048;24.650;2023-09-12T03:31:13;97453.06;;;15.56;58.09
16461;BME280;8341;42.048;24.650;2023-09-12T03:33:41;97449.75;;;15.36;57.06
16461;BME280;8341;42.048;24.650;2023-09-12T03:36:08;97458.72;;;15.09;57.77
16461;BME280;8341;42.048;24.650;2023-09-12T03:38:35;97451.53;;;15.22;59.76
16461;BME280;8341;42.048;24.650;2023-09-12T03:41:02;97449.03;;;15.24;59.16
16461;BME280;8341;42.048;24.650;2023-09-12T03:43:32;97463.53;;;15.30;59.21
16461;BME280;8341;42.048;24.650;2023-09-12T03:45:59;97463.50;;;15.36;59.05
16461;BME280;8341;42.048;24.650;2023-09-12T03:48:26;97457.78;;;15.23;58.03
16461;BME280;8341;42.048;24.650;2023-09-12T03:50:55;97464.00;;;15.23;57.79
16461;BME280;8341;42.048;24.650;2023-09-12T03:53:22;97467.22;;;15.16;58.39
16461;BME280;8341;42.048;24.650;2023-09-12T03:55:49;97468.47;;;15.21;59.09
16461;BME280;8341;42.048;24.650;2023-09-12T03:58:16;97465.25;;;15.22;59.10
16461;BME280;8341;42.048;24.650;2023-09-12T04:00:44;97475.97;;;15.26;58.53
16461;BME280;8341;42.048;24.650;2023-09-12T04:03:11;97468.75;;;15.28;58.62
16461;BME280;8341;42.048;24.650;2023-09-12T04:05:37;97458.00;;;15.19;57.59
16461;BME280;8341;42.048;24.650;2023-09-12T04:08:04;97478.72;;;15.15;57.89
16461;BME280;8341;42.048;24.650;2023-09-12T04:10:31;97471.19;;;14.98;58.62
16461;BME280;8341;42.048;24.650;2023-09-12T04:12:58;97470.72;;;15.11;58.92
16461;BME280;8341;42.048;24.650;2023-09-12T04:15:25;97468.75;;;15.17;57.58
16461;BME280;8341;42.048;24.650;2023-09-12T04:17:53;97466.53;;;15.32;60.65
16461;BME280;8341;42.048;24.650;2023-09-12T04:20:20;97469.75;;;15.36;60.51
16461;BME280;8341;42.048;24.650;2023-09-12T04:22:47;97470.50;;;15.31;59.07
16461;BME280;8341;42.048;24.650;2023-09-12T04:25:14;97469.56;;;15.45;60.64
16461;BME280;8341;42.048;24.650;2023-09-12T04:27:41;97473.03;;;15.51;60.52
16461;BME280;8341;42.048;24.650;2023-09-12T04:30:08;97466.25;;;15.25;58.86
16461;BME280;8341;42.048;24.650;2023-09-12T04:32:35;97469.28;;;15.38;60.81
16461;BME280;8341;42.048;24.650;2023-09-12T04:35:04;97476.50;;;15.41;59.97
16461;BME280;8341;42.048;24.650;2023-09-12T04:37:31;97468.03;;;15.44;57.70
16461;BME280;8341;42.048;24.650;2023-09-12T04:39:58;97475.31;;;15.58;59.12
16461;BME280;8341;42.048;24.650;2023-09-12T04:42:24;97479.06;;;15.50;57.01
16461;BME280;8341;42.048;24.650;2023-09-12T04:44:51;97477.31;;;15.52;58.43
16461;BME280;8341;42.048;24.650;2023-09-12T04:47:18;97481.28;;;15.57;58.71
16461;BME280;8341;42.048;24.650;2023-09-12T04:49:45;97478.03;;;15.64;59.73
16461;BME280;8341;42.048;24.650;2023-09-12T04:52:13;97476.50;;;15.41;58.43
16461;BME280;8341;42.048;24.650;2023-09-12T04:54:40;97469.31;;;15.60;58.91
16461;BME280;8341;42.048;24.650;2023-09-12T04:57:07;97459.81;;;15.50;57.79
16461;BME280;8341;42.048;24.650;2023-09-12T04:59:34;97466.06;;;15.78;60.49
16461;BME280;8341;42.048;24.650;2023-09-12T05:02:01;97479.53;;;15.93;60.02
16461;BME280;8341;42.048;24.650;2023-09-12T05:04:28;97473.94;;;16.37;57.60
16461;BME280;8341;42.048;24.650;2023-09-12T05:06:55;97476.84;;;17.19;55.01
16461;BME280;8341;42.048;24.650;2023-09-12T05:09:23;97471.91;;;17.47;54.51
16461;BME280;8341;42.048;24.650;2023-09-12T05:11:50;97476.34;;;17.61;53.22
16461;BME280;8341;42.048;24.650;2023-09-12T05:14:17;97470.44;;;17.46;54.80
16461;BME280;8341;42.048;24.650;2023-09-12T05:16:44;97467.97;;;17.37;52.78
16461;BME280;8341;42.048;24.650;2023-09-12T05:19:10;97476.16;;;17.13;53.19
16461;BME280;8341;42.048;24.650;2023-09-12T05:21:37;97473.69;;;17.04;54.20
16461;BME280;8341;42.048;24.650;2023-09-12T05:24:05;97480.16;;;17.12;54.43
16461;BME280;8341;42.048;24.650;2023-09-12T05:26:33;97484.94;;;17.06;53.87
16461;BME280;8341;42.048;24.650;2023-09-12T05:29:00;97479.16;;;17.15;53.69
16461;BME280;8341;42.048;24.650;2023-09-12T05:31:27;97470.56;;;17.24;53.86
16461;BME280;8341;42.048;24.650;2023-09-12T05:33:54;97471.91;;;17.47;54.35
16461;BME280;8341;42.048;24.650;2023-09-12T05:36:20;97471.06;;;17.63;54.49
16461;BME280;8341;42.048;24.650;2023-09-12T05:38:47;97475.41;;;17.83;54.32
16461;BME280;8341;42.048;24.650;2023-09-12T05:41:14;97462.03;;;17.92;54.23
16461;BME280;8341;42.048;24.650;2023-09-12T05:43:42;97474.69;;;18.06;54.62
16461;BME280;8341;42.048;24.650;2023-09-12T05:46:09;97456.88;;;18.07;55.69
16461;BME280;8341;42.048;24.650;2023-09-12T05:48:36;97474.41;;;18.34;54.45
16461;BME280;8341;42.048;24.650;2023-09-12T05:51:02;97464.34;;;18.37;56.20
16461;BME280;8341;42.048;24.650;2023-09-12T05:53:29;97467.81;;;18.43;55.71
16461;BME280;8341;42.048;24.650;2023-09-12T05:55:56;97461.72;;;18.50;54.69
16461;BME280;8341;42.048;24.650;2023-09-12T05:58:23;97469.50;;;18.70;54.75
16461;BME280;8341;42.048;24.650;2023-09-12T06:00:51;97465.41;;;18.77;52.54
16461;BME280;8341;42.048;24.650;2023-09-12T06:03:18;97470.31;;;18.65;51.39
16461;BME280;8341;42.048;24.650;2023-09-12T06:05:45;97474.38;;;18.64;50.03
16461;BME280;8341;42.048;24.650;2023-09-12T06:08:12;97474.88;;;18.62;49.68
16461;BME280;8341;42.048;24.650;2023-09-12T06:10:38;97474.81;;;18.68;50.57
16461;BME280;8341;42.048;24.650;2023-09-12T06:13:05;97475.44;;;18.80;51.06
16461;BME280;8341;42.048;24.650;2023-09-12T06:15:32;97475.00;;;18.94;50.50
16461;BME280;8341;42.048;24.650;2023-09-12T06:18:00;97467.44;;;18.95;49.02
16461;BME280;8341;42.048;24.650;2023-09-12T06:20:27;97476.78;;;18.92;48.17
16461;BME280;8341;42.048;24.650;2023-09-12T06:22:53;97484.91;;;18.84;47.72
16461;BME280;8341;42.048;24.650;2023-09-12T06:25:20;97483.66;;;19.04;48.11
16461;BME280;8341;42.048;24.650;2023-09-12T06:27:47;97481.03;;;19.11;48.26
16461;BME280;8341;42.048;24.650;2023-09-12T06:30:15;97483.19;;;19.18;47.40
16461;BME280;8341;42.048;24.650;2023-09-12T06:32:42;97484.72;;;19.38;47.81
16461;BME280;8341;42.048;24.650;2023-09-12T06:35:10;97481.03;;;19.49;47.35
16461;BME280;8341;42.048;24.650;2023-09-12T06:37:38;97487.34;;;19.62;49.03
16461;BME280;8341;42.048;24.650;2023-09-12T06:40:07;97486.63;;;19.62;48.27
16461;BME280;8341;42.048;24.650;2023-09-12T06:42:34;97486.00;;;19.69;48.42
16461;BME280;8341;42.048;24.650;2023-09-12T06:45:01;97486.25;;;19.84;47.95
16461;BME280;8341;42.048;24.650;2023-09-12T06:47:28;97472.69;;;19.67;46.38
16461;BME280;8341;42.048;24.650;2023-09-12T06:49:55;97493.59;;;19.81;45.55
16461;BME280;8341;42.048;24.650;2023-09-12T06:52:23;97493.72;;;19.89;46.68
16461;BME280;8341;42.048;24.650;2023-09-12T06:54:50;97493.22;;;20.04;46.42
16461;BME280;8341;42.048;24.650;2023-09-12T06:57:17;97496.63;;;19.96;46.46
16461;BME280;8341;42.048;24.650;2023-09-12T06:59:44;97499.72;;;20.06;47.65
16461;BME280;8341;42.048;24.650;2023-09-12T07:02:13;97497.91;;;20.09;46.75
16461;BME280;8341;42.048;24.650;2023-09-12T07:04:40;97503.03;;;20.18;46.84
16461;BME280;8341;42.048;24.650;2023-09-12T07:07:07;97510.22;;;20.26;47.00
16461;BME280;8341;42.048;24.650;2023-09-12T07:09:35;97506.59;;;20.31;47.55
16461;BME280;8341;42.048;24.650;2023-09-12T07:12:03;97491.06;;;20.28;47.22
16461;BME280;8341;42.048;24.650;2023-09-12T07:14:31;97510.66;;;20.43;47.06
16461;BME280;8341;42.048;24.650;2023-09-12T07:16:58;97507.25;;;20.50;47.18
16461;BME280;8341;42.048;24.650;2023-09-12T07:19:25;97503.31;;;20.59;46.23
16461;BME280;8341;42.048;24.650;2023-09-12T07:21:52;97503.75;;;20.63;47.25
16461;BME280;8341;42.048;24.650;2023-09-12T07:24:19;97513.00;;;20.79;46.38
16461;BME280;8341;42.048;24.650;2023-09-12T07:26:47;97513.13;;;20.73;45.66
16461;BME280;8341;42.048;24.650;2023-09-12T07:29:14;97509.94;;;20.82;44.80
16461;BME280;8341;42.048;24.650;2023-09-12T07:31:41;97508.63;;;20.96;45.46
16461;BME280;8341;42.048;24.650;2023-09-12T07:34:08;97507.53;;;20.99;44.95
16461;BME280;8341;42.048;24.650;2023-09-12T07:36:37;97507.00;;;21.01;45.24
16461;BME280;8341;42.048;24.650;2023-09-12T07:39:04;97501.25;;;21.12;46.17
16461;BME280;8341;42.048;24.650;2023-09-12T07:41:32;97501.56;;;21.21;45.86
16461;BME280;8341;42.048;24.650;2023-09-12T07:44:00;97504.88;;;21.20;46.12
16461;BME280;8341;42.048;24.650;2023-09-12T07:46:30;97508.75;;;21.38;46.89
16461;BME280;8341;42.048;24.650;2023-09-12T07:48:57;97501.50;;;21.35;46.43
16461;BME280;8341;42.048;24.650;2023-09-12T07:51:25;97493.94;;;21.35;46.63
16461;BME280;8341;42.048;24.650;2023-09-12T07:53:52;97493.47;;;21.44;46.75
16461;BME280;8341;42.048;24.650;2023-09-12T07:56:19;97497.06;;;21.52;46.94
16461;BME280;8341;42.048;24.650;2023-09-12T07:58:46;97493.84;;;21.61;46.12
16461;BME280;8341;42.048;24.650;2023-09-12T08:01:14;97489.03;;;21.62;47.00
16461;BME280;8341;42.048;24.650;2023-09-12T08:03:42;97492.09;;;21.71;45.90
16461;BME280;8341;42.048;24.650;2023-09-12T08:06:09;97491.09;;;21.82;47.46
16461;BME280;8341;42.048;24.650;2023-09-12T08:08:36;97498.47;;;21.79;45.42
16461;BME280;8341;42.048;24.650;2023-09-12T08:11:03;97498.34;;;21.85;44.89
16461;BME280;8341;42.048;24.650;2023-09-12T08:13:30;97493.06;;;21.95;46.31
16461;BME280;8341;42.048;24.650;2023-09-12T08:15:57;97491.31;;;22.05;45.72
16461;BME280;8341;42.048;24.650;2023-09-12T08:18:28;97496.25;;;21.99;45.63
16461;BME280;8341;42.048;24.650;2023-09-12T08:20:56;97489.84;;;22.11;45.42
16461;BME280;8341;42.048;24.650;2023-09-12T08:23:24;97484.34;;;22.19;45.38
16461;BME280;8341;42.048;24.650;2023-09-12T08:25:51;97481.28;;;22.30;45.64
16461;BME280;8341;42.048;24.650;2023-09-12T08:28:18;97466.22;;;22.18;43.24
16461;BME280;8341;42.048;24.650;2023-09-12T08:30:45;97487.16;;;22.47;45.41
16461;BME280;8341;42.048;24.650;2023-09-12T08:33:12;97489.03;;;22.52;43.90
16461;BME280;8341;42.048;24.650;2023-09-12T08:35:40;97486.09;;;22.58;44.13
16461;BME280;8341;42.048;24.650;2023-09-12T08:38:07;97479.13;;;22.64;43.30
16461;BME280;8341;42.048;24.650;2023-09-12T08:40:34;97481.81;;;22.77;43.95
16461;BME280;8341;42.048;24.650;2023-09-12T08:43:02;97477.41;;;22.61;43.70
16461;BME280;8341;42.048;24.650;2023-09-12T08:45:30;97479.50;;;22.68;45.08
16461;BME280;8341;42.048;24.650;2023-09-12T08:47:59;97471.25;;;22.83;44.17
16461;BME280;8341;42.048;24.650;2023-09-12T08:50:27;97464.16;;;22.67;43.48
16461;BME280;8341;42.048;24.650;2023-09-12T08:52:58;97478.34;;;22.92;43.90
16461;BME280;8341;42.048;24.650;2023-09-12T08:55:25;97480.69;;;22.80;43.55
16461;BME280;8341;42.048;24.650;2023-09-12T08:57:53;97480.97;;;22.97;42.67
16461;BME280;8341;42.048;24.650;2023-09-12T09:00:22;97480.63;;;23.08;42.77
16461;BME280;8341;42.048;24.650;2023-09-12T09:02:50;97466.75;;;23.16;43.11
16461;BME280;8341;42.048;24.650;2023-09-12T09:05:20;97470.28;;;23.24;42.02
16461;BME280;8341;42.048;24.650;2023-09-12T09:07:49;97474.91;;;23.22;41.67
16461;BME280;8341;42.048;24.650;2023-09-12T09:10:18;97482.38;;;23.34;41.24
16461;BME280;8341;42.048;24.650;2023-09-12T09:12:46;97480.75;;;23.39;40.90
16461;BME280;8341;42.048;24.650;2023-09-12T09:15:26;97478.34;;;23.43;40.00
16461;BME280;8341;42.048;24.650;2023-09-12T09:17:54;97467.97;;;23.51;40.59
16461;BME280;8341;42.048;24.650;2023-09-12T09:20:25;97468.00;;;23.58;40.90
16461;BME280;8341;42.048;24.650;2023-09-12T09:23:00;97469.84;;;23.56;39.61
16461;BME280;8341;42.048;24.650;2023-09-12T09:25:31;97469.69;;;23.77;39.07
16461;BME280;8341;42.048;24.650;2023-09-12T09:28:02;97461.34;;;23.84;38.86
16461;BME280;8341;42.048;24.650;2023-09-12T09:30:42;97472.13;;;23.88;39.06
16461;BME280;8341;42.048;24.650;2023-09-12T09:33:10;97463.38;;;24.06;40.36
16461;BME280;8341;42.048;24.650;2023-09-12T09:35:37;97465.44;;;24.21;37.61
16461;BME280;8341;42.048;24.650;2023-09-12T09:38:07;97454.66;;;24.10;36.87
16461;BME280;8341;42.048;24.650;2023-09-12T09:40:36;97457.06;;;24.28;37.39
16461;BME280;8341;42.048;24.650;2023-09-12T09:43:04;97447.59;;;24.32;37.41
16461;BME280;8341;42.048;24.650;2023-09-12T09:45:31;97452.06;;;24.19;37.79
16461;BME280;8341;42.048;24.650;2023-09-12T09:48:04;97452.06;;;24.19;38.06
16461;BME280;8341;42.048;24.650;2023-09-12T09:50:33;97450.94;;;24.30;36.98
16461;BME280;8341;42.048;24.650;2023-09-12T09:53:02;97451.31;;;24.34;36.63
16461;BME280;8341;42.048;24.650;2023-09-12T09:55:30;97452.53;;;24.56;37.00
16461;BME280;8341;42.048;24.650;2023-09-12T09:57:59;97445.28;;;24.53;36.64
16461;BME280;8341;42.048;24.650;2023-09-12T10:00:28;97457.56;;;24.65;36.65
16461;BME280;8341;42.048;24.650;2023-09-12T10:02:56;97456.22;;;24.81;36.27
16461;BME280;8341;42.048;24.650;2023-09-12T10:05:24;97456.94;;;24.89;36.63
16461;BME280;8341;42.048;24.650;2023-09-12T10:07:54;97449.66;;;24.94;37.60
16461;BME280;8341;42.048;24.650;2023-09-12T10:10:24;97448.81;;;25.16;38.31
16461;BME280;8341;42.048;24.650;2023-09-12T10:12:58;97445.56;;;25.34;37.54
16461;BME280;8341;42.048;24.650;2023-09-12T10:15:28;97443.25;;;25.16;36.67
16461;BME280;8341;42.048;24.650;2023-09-12T10:17:57;97443.91;;;25.31;37.37
16461;BME280;8341;42.048;24.650;2023-09-12T10:20:27;97443.38;;;25.25;36.45
16461;BME280;8341;42.048;24.650;2023-09-12T10:23:05;97439.31;;;25.51;36.97
16461;BME280;8341;42.048;24.650;2023-09-12T10:25:37;97439.22;;;25.66;36.68
16461;BME280;8341;42.048;24.650;2023-09-12T10:28:07;97431.06;;;25.61;36.31
16461;BME280;8341;42.048;24.650;2023-09-12T10:30:35;97428.91;;;25.76;36.52
16461;BME280;8341;42.048;24.650;2023-09-12T10:33:03;97428.44;;;25.87;36.86
16461;BME280;8341;42.048;24.650;2023-09-12T10:35:31;97423.97;;;26.09;37.51
16461;BME280;8341;42.048;24.650;2023-09-12T10:38:00;97413.16;;;26.13;36.43
16461;BME280;8341;42.048;24.650;2023-09-12T10:40:31;97423.97;;;26.09;36.33
16461;BME280;8341;42.048;24.650;2023-09-12T10:42:59;97406.19;;;25.97;36.47
16461;BME280;8341;42.048;24.650;2023-09-12T10:45:31;97419.41;;;26.21;36.25
16461;BME280;8341;42.048;24.650;2023-09-12T10:47:58;97412.97;;;26.11;36.40
16461;BME280;8341;42.048;24.650;2023-09-12T10:50:25;97408.47;;;26.33;37.18
16461;BME280;8341;42.048;24.650;2023-09-12T10:52:54;97410.38;;;26.64;37.13
16461;BME280;8341;42.048;24.650;2023-09-12T10:55:21;97399.03;;;26.62;36.19
16461;BME280;8341;42.048;24.650;2023-09-12T10:58:00;97394.38;;;26.74;36.45
16461;BME280;8341;42.048;24.650;2023-09-12T11:00:30;97393.50;;;26.72;35.72
16461;BME280;8341;42.048;24.650;2023-09-12T11:02:58;97384.28;;;26.62;35.70
16461;BME280;8341;42.048;24.650;2023-09-12T11:05:36;97388.22;;;26.93;35.62
16461;BME280;8341;42.048;24.650;2023-09-12T11:08:03;97388.91;;;27.11;36.00
16461;BME280;8341;42.048;24.650;2023-09-12T11:10:30;97374.22;;;27.20;34.60
16461;BME280;8341;42.048;24.650;2023-09-12T11:12:58;97379.34;;;27.41;35.35
16461;BME280;8341;42.048;24.650;2023-09-12T11:15:26;97379.22;;;27.48;34.83
16461;BME280;8341;42.048;24.650;2023-09-12T11:18:02;97377.63;;;27.45;35.33
16461;BME280;8341;42.048;24.650;2023-09-12T11:20:50;97367.94;;;27.65;36.30
16461;BME280;8341;42.048;24.650;2023-09-12T11:23:17;97370.78;;;27.84;35.10
16461;BME280;8341;42.048;24.650;2023-09-12T11:25:44;97371.13;;;27.88;34.98
16461;BME280;8341;42.048;24.650;2023-09-12T11:28:11;97371.00;;;28.06;34.27
16461;BME280;8341;42.048;24.650;2023-09-12T11:30:55;97368.66;;;28.12;34.34
16461;BME280;8341;42.048;24.650;2023-09-12T11:33:24;97367.19;;;28.11;34.92
16461;BME280;8341;42.048;24.650;2023-09-12T11:35:52;97363.63;;;28.10;34.28
16461;BME280;8341;42.048;24.650;2023-09-12T11:38:26;97360.84;;;28.20;34.78
16461;BME280;8341;42.048;24.650;2023-09-12T11:40:54;97361.00;;;28.31;33.23
16461;BME280;8341;42.048;24.650;2023-09-12T11:43:22;97349.78;;;28.41;33.25
16461;BME280;8341;42.048;24.650;2023-09-12T11:45:50;97341.03;;;28.56;35.11
16461;BME280;8341;42.048;24.650;2023-09-12T11:48:18;97342.09;;;28.70;33.51
16461;BME280;8341;42.048;24.650;2023-09-12T11:50:51;97342.81;;;28.80;32.85
16461;BME280;8341;42.048;24.650;2023-09-12T11:53:21;97336.66;;;28.63;31.81
16461;BME280;8341;42.048;24.650;2023-09-12T11:55:52;97342.69;;;28.40;32.21
16461;BME280;8341;42.048;24.650;2023-09-12T11:58:20;97325.25;;;28.51;33.13
16461;BME280;8341;42.048;24.650;2023-09-12T12:00:49;97328.06;;;28.41;32.41
16461;BME280;8341;42.048;24.650;2023-09-12T12:03:18;97329.25;;;28.58;30.43
16461;BME280;8341;42.048;24.650;2023-09-12T12:05:45;97324.53;;;28.12;30.05
16461;BME280;8341;42.048;24.650;2023-09-12T12:08:15;97312.59;;;28.12;31.26
16461;BME280;8341;42.048;24.650;2023-09-12T12:10:42;97317.00;;;28.34;32.71
16461;BME280;8341;42.048;24.650;2023-09-12T12:13:11;97310.97;;;28.37;29.69
16461;BME280;8341;42.048;24.650;2023-09-12T12:15:38;97296.63;;;28.24;27.84
16461;BME280;8341;42.048;24.650;2023-09-12T12:18:05;97307.25;;;28.25;29.62
16461;BME280;8341;42.048;24.650;2023-09-12T12:20:32;97316.56;;;28.47;28.39
16461;BME280;8341;42.048;24.650;2023-09-12T12:22:59;97306.53;;;28.34;28.91
16461;BME280;8341;42.048;24.650;2023-09-12T12:25:31;97305.78;;;28.43;28.47
16461;BME280;8341;42.048;24.650;2023-09-12T12:27:58;97306.06;;;28.57;26.30
16461;BME280;8341;42.048;24.650;2023-09-12T12:30:26;97306.06;;;28.47;27.00
16461;BME280;8341;42.048;24.650;2023-09-12T12:32:56;97300.59;;;28.59;27.05
16461;BME280;8341;42.048;24.650;2023-09-12T12:35:24;97300.59;;;28.59;26.98
16461;BME280;8341;42.048;24.650;2023-09-12T12:37:53;97309.00;;;28.78;26.86
16461;BME280;8341;42.048;24.650;2023-09-12T12:40:21;97309.84;;;28.90;27.00
16461;BME280;8341;42.048;24.650;2023-09-12T12:42:49;97307.66;;;28.89;26.84
16461;BME280;8341;42.048;24.650;2023-09-12T12:45:17;97299.25;;;28.60;24.21
16461;BME280;8341;42.048;24.650;2023-09-12T12:47:45;97305.16;;;28.74;26.24
16461;BME280;8341;42.048;24.650;2023-09-12T12:50:12;97304.97;;;28.91;26.93
16461;BME280;8341;42.048;24.650;2023-09-12T12:52:39;97301.00;;;28.84;27.01
16461;BME280;8341;42.048;24.650;2023-09-12T12:55:09;97298.47;;;28.88;27.64
16461;BME280;8341;42.048;24.650;2023-09-12T12:57:37;97300.19;;;29.03;27.65
16461;BME280;8341;42.048;24.650;2023-09-12T13:00:09;97297.00;;;28.87;26.90
16461;BME280;8341;42.048;24.650;2023-09-12T13:02:36;97297.88;;;28.90;26.51
16461;BME280;8341;42.048;24.650;2023-09-12T13:05:04;97295.53;;;28.86;25.82
16461;BME280;8341;42.048;24.650;2023-09-12T13:07:33;97293.91;;;28.83;25.71
16461;BME280;8341;42.048;24.650;2023-09-12T13:10:01;97298.63;;;28.90;27.11
16461;BME280;8341;42.048;24.650;2023-09-12T13:12:28;97297.91;;;28.80;26.11
16461;BME280;8341;42.048;24.650;2023-09-12T13:14:55;97287.16;;;28.67;26.41
16461;BME280;8341;42.048;24.650;2023-09-12T13:17:23;97302.34;;;28.74;26.50
16461;BME280;8341;42.048;24.650;2023-09-12T13:19:50;97292.47;;;28.73;26.19
16461;BME280;8341;42.048;24.650;2023-09-12T13:22:16;97294.97;;;28.78;26.37
16461;BME280;8341;42.048;24.650;2023-09-12T13:24:43;97282.72;;;28.64;24.87
16461;BME280;8341;42.048;24.650;2023-09-12T13:27:10;97287.75;;;28.66;24.09
16461;BME280;8341;42.048;24.650;2023-09-12T13:29:37;97296.91;;;28.66;21.64
16461;BME280;8341;42.048;24.650;2023-09-12T13:32:04;97275.94;;;28.48;22.22
16461;BME280;8341;42.048;24.650;2023-09-12T13:34:33;97287.03;;;28.65;22.28
16461;BME280;8341;42.048;24.650;2023-09-12T13:36:59;97285.19;;;28.79;22.49
16461;BME280;8341;42.048;24.650;2023-09-12T13:39:26;97289.63;;;28.82;24.00
16461;BME280;8341;42.048;24.650;2023-09-12T13:41:53;97277.22;;;28.85;24.98
16461;BME280;8341;42.048;24.650;2023-09-12T13:44:23;97281.00;;;28.99;26.21
16461;BME280;8341;42.048;24.650;2023-09-12T13:46:50;97272.75;;;28.92;25.82
16461;BME280;8341;42.048;24.650;2023-09-12T13:49:16;97280.03;;;28.85;26.55
16461;BME280;8341;42.048;24.650;2023-09-12T13:51:44;97277.78;;;28.93;26.69
16461;BME280;8341;42.048;24.650;2023-09-12T13:54:11;97280.84;;;28.97;26.03
16461;BME280;8341;42.048;24.650;2023-09-12T13:56:40;97281.78;;;28.90;24.57
16461;BME280;8341;42.048;24.650;2023-09-12T13:59:07;97280.28;;;28.89;24.99
16461;BME280;8341;42.048;24.650;2023-09-12T14:01:33;97287.44;;;28.71;23.90
16461;BME280;8341;42.048;24.650;2023-09-12T14:04:00;97287.03;;;28.65;24.63
16461;BME280;8341;42.048;24.650;2023-09-12T14:06:27;97283.78;;;28.49;23.82
16461;BME280;8341;42.048;24.650;2023-09-12T14:08:55;97275.31;;;28.59;24.35
16461;BME280;8341;42.048;24.650;2023-09-12T14:11:22;97282.16;;;28.66;24.44
16461;BME280;8341;42.048;24.650;2023-09-12T14:13:48;97286.09;;;28.72;25.12
16461;BME280;8341;42.048;24.650;2023-09-12T14:16:15;97286.13;;;28.53;25.09
16461;BME280;8341;42.048;24.650;2023-09-12T14:18:42;97284.78;;;28.54;24.98
16461;BME280;8341;42.048;24.650;2023-09-12T14:21:09;97291.41;;;28.58;25.10
16461;BME280;8341;42.048;24.650;2023-09-12T14:23:36;97290.53;;;28.56;24.52
16461;BME280;8341;42.048;24.650;2023-09-12T14:26:04;97288.63;;;28.49;23.93
16461;BME280;8341;42.048;24.650;2023-09-12T14:28:30;97278.00;;;28.57;24.70
16461;BME280;8341;42.048;24.650;2023-09-12T14:30:59;97277.13;;;28.54;24.88
16461;BME280;8341;42.048;24.650;2023-09-12T14:33:26;97280.94;;;28.59;25.01
16461;BME280;8341;42.048;24.650;2023-09-12T14:35:53;97283.59;;;28.57;25.56
16461;BME280;8341;42.048;24.650;2023-09-12T14:38:19;97282.44;;;28.60;26.34
16461;BME280;8341;42.048;24.650;2023-09-12T14:40:46;97281.09;;;28.51;26.12
16461;BME280;8341;42.048;24.650;2023-09-12T14:43:14;97278.75;;;28.48;25.69
16461;BME280;8341;42.048;24.650;2023-09-12T14:45:41;97269.00;;;28.49;26.14
16461;BME280;8341;42.048;24.650;2023-09-12T14:48:08;97263.09;;;28.35;26.89
16461;BME280;8341;42.048;24.650;2023-09-12T14:50:35;97272.84;;;28.25;27.39
16461;BME280;8341;42.048;24.650;2023-09-12T14:53:01;97268.31;;;28.29;27.61
16461;BME280;8341;42.048;24.650;2023-09-12T14:55:28;97271.09;;;28.20;28.29
16461;BME280;8341;42.048;24.650;2023-09-12T14:57:55;97263.56;;;28.13;29.01
16461;BME280;8341;42.048;24.650;2023-09-12T15:00:24;97270.53;;;28.12;28.40
16461;BME280;8341;42.048;24.650;2023-09-12T15:02:51;97259.00;;;28.08;28.68
16461;BME280;8341;42.048;24.650;2023-09-12T15:05:18;97260.34;;;28.16;29.24
16461;BME280;8341;42.048;24.650;2023-09-12T15:07:45;97267.25;;;28.15;29.32
16461;BME280;8341;42.048;24.650;2023-09-12T15:10:11;97269.19;;;28.13;29.42
16461;BME280;8341;42.048;24.650;2023-09-12T15:12:38;97273.03;;;28.08;29.45
16461;BME280;8341;42.048;24.650;2023-09-12T15:15:06;97272.13;;;27.95;29.97
16461;BME280;8341;42.048;24.650;2023-09-12T15:17:34;97266.66;;;27.98;29.40
16461;BME280;8341;42.048;24.650;2023-09-12T15:20:01;97271.66;;;27.89;29.67
16461;BME280;8341;42.048;24.650;2023-09-12T15:22:30;97268.72;;;27.87;30.46
16461;BME280;8341;42.048;24.650;2023-09-12T15:24:57;97270.19;;;27.88;30.70
16461;BME280;8341;42.048;24.650;2023-09-12T15:27:24;97264.28;;;27.84;31.18
16461;BME280;8341;42.048;24.650;2023-09-12T15:29:50;97270.91;;;27.79;30.66
16461;BME280;8341;42.048;24.650;2023-09-12T15:32:17;97266.81;;;27.80;31.20
16461;BME280;8341;42.048;24.650;2023-09-12T15:34:45;97262.38;;;27.68;31.41
16461;BME280;8341;42.048;24.650;2023-09-12T15:37:13;97262.78;;;27.64;31.56
16461;BME280;8341;42.048;24.650;2023-09-12T15:39:40;97262.94;;;27.57;31.87
16461;BME280;8341;42.048;24.650;2023-09-12T15:42:07;97266.00;;;27.51;32.00
16461;BME280;8341;42.048;24.650;2023-09-12T15:44:34;97253.91;;;27.49;32.01
16461;BME280;8341;42.048;24.650;2023-09-12T15:47:01;97254.75;;;27.32;32.25
16461;BME280;8341;42.048;24.650;2023-09-12T15:49:28;97254.56;;;27.30;32.10
16461;BME280;8341;42.048;24.650;2023-09-12T15:51:56;97250.88;;;27.18;32.15
16461;BME280;8341;42.048;24.650;2023-09-12T15:54:23;97254.69;;;27.13;32.71